Portada
METAR-TAF:

METAR-TAF

Aeroports :

Aeroport Internacional de Pequín

Pequín, Xina

latitud: 39-56N, longitud: 116-17E, altitud: 55 m

Observació

L'informe es va fer fa 38 minuts, a les 11:00 UTC
Vent 6 kt del Sud/Sud-Est
Temperatura 4°C
Humitat 38%
Pressió 1027 hPa
Visibilitat 10 km o més
sense núvols per sota de 1500 mi sense presència de cumulonimbus.

METAR: ZBAA 271100Z 16003MPS CAVOK 04/M09 Q1027 NOSIG

Hora: 19:38 (11:38 UTC)

Pronòstic

L'informe es va fer fa 8 hores i 36 minuts, a les 03:02 UTC
Pronòstic vàlid del 27 a les 06 UTC al 28 a les 06 UTC
Vent 8 kt del Sud
Visibilitat: 5000 m
boirina

TAF: ZBAA 270302Z 2706/2806 18004MPS 5000 BR NSC TX07/2707Z TN01/2721Z

Observacions i pronòstics meteorològics de més de 4000 aeroports (METAR i TAF).

Les estacions disponibles són els punts grocs i vermells al mapa.

Posi el ratolí al punt desitjat per veure el nom de l'estació.

Feu clic per veure les observacions i els pronòstics meteorològics.

Per canviar el mapa: feu clic els botons verds amb una creu de color negre per apropar; al botó verd amb un guió per allunyar la imatge; o en les fletxes verdes per a mapes adjacents.


METAR-TAF: